This is the latest recevied weather packets stored in our database for station/object KC1TLF-15. If no packets are shown the sender has not sent any weather packets the latest 10 day(s).
| Time | Temp. | Humidity | Pressure | Rain* | Wind** | Luminosity | Snow |
|---|---|---|---|---|---|---|---|
| 1777423269 | 8.33° C | 53% | 1028.3 hPa | 0 mm | 0 m/s | 0 W/m² | - |
| 1777422671 | 8.89° C | 48% | 1028.5 hPa | 0 mm | 0 m/s | 0 W/m² | - |
| 1777422070 | 8.89° C | 46% | 1028.6 hPa | 0 mm | 0 m/s | 0 W/m² | - |
| 1777421472 | 8.89° C | 43% | 1028.2 hPa | 0 mm | 0 m/s | - | - |
| 1777420870 | 9.44° C | 40% | 1028.1 hPa | 0 mm | 0 m/s | - | - |
| 1777420270 | 10° C | 38% | 1028.3 hPa | 0 mm | 0.45 m/s, 343° | - | - |
| 1777419671 | 10° C | 33% | 1028.2 hPa | 0 mm | 0 m/s | - | - |
| 1777419071 | 10.56° C | 33% | 1028.3 hPa | 0 mm | 0.45 m/s, 4° | - | - |
| 1777418470 | 10.56° C | 33% | 1028.1 hPa | 0 mm | 0.45 m/s, 73° | - | - |
| 1777417870 | 11.11° C | 33% | 1028.4 hPa | 0 mm | 0.89 m/s, 321° | - | - |
| 1777417270 | 11.67° C | 33% | 1028.2 hPa | 0 mm | 0.45 m/s, 159° | 22 W/m² | - |
| 1777416671 | 12.22° C | 32% | 1028.2 hPa | 0 mm | 0.45 m/s, 327° | - | - |
| 1777416069 | 12.22° C | 32% | 1028.2 hPa | 0 mm | 0.89 m/s, 353° | - | - |
| 1777415470 | 12.78° C | 31% | 1028.5 hPa | 0 mm | 1.79 m/s, 83° | - | - |
| 1777414871 | 12.78° C | 31% | 1028.4 hPa | 0 mm | 0 m/s | - | - |
| 1777414271 | 13.33° C | 30% | 1028.4 hPa | 0 mm | 0.89 m/s, 332° | - | - |
| 1777413670 | 13.33° C | 31% | 1028.6 hPa | 0 mm | 1.79 m/s, 187° | - | - |
| 1777413070 | 13.89° C | 34% | 1028.4 hPa | 0 mm | 3.58 m/s, 92° | - | - |
| 1777412471 | 13.89° C | 35% | 1028.6 hPa | 0 mm | 0.89 m/s, 63° | - | - |
| 1777411871 | 14.44° C | 35% | 1028.6 hPa | 0 mm | 0.89 m/s, 319° | - | - |
| 1777411269 | 14.44° C | 36% | 1028.8 hPa | 0 mm | 0.45 m/s, 55° | - | - |
| 1777410670 | 14.44° C | 36% | 1028.7 hPa | 0 mm | 1.79 m/s, 221° | - | - |
| 1777410072 | 15° C | 36% | 1028.6 hPa | 0 mm | 1.79 m/s, 90° | - | - |
| 1777409470 | 15° C | 36% | 1028.6 hPa | 0 mm | 0.45 m/s, 357° | - | - |
| 1777408870 | 15.56° C | 36% | 1028.7 hPa | 0 mm | 0.45 m/s, 184° | - | - |
* Rain latest hour (hover to see other rain measurements)
** Current wind speed in m/s (hover to see current wind gust speed)